sensor_id;sensor_type;location;lat;lon;timestamp;temperature;humidity
3727;DHT22;1879;45.876;12.300;2022-08-21T00:01:34;23.30;99.90
3727;DHT22;1879;45.876;12.300;2022-08-21T00:04:06;23.30;99.90
3727;DHT22;1879;45.876;12.300;2022-08-21T00:06:33;23.30;99.90
3727;DHT22;1879;45.876;12.300;2022-08-21T00:09:01;23.30;99.90
3727;DHT22;1879;45.876;12.300;2022-08-21T00:11:28;23.20;99.90
3727;DHT22;1879;45.876;12.300;2022-08-21T00:13:55;23.10;99.90
3727;DHT22;1879;45.876;12.300;2022-08-21T00:16:23;23.10;99.90
3727;DHT22;1879;45.876;12.300;2022-08-21T00:18:50;23.10;99.90
3727;DHT22;1879;45.876;12.300;2022-08-21T00:21:18;23.10;99.90
3727;DHT22;1879;45.876;12.300;2022-08-21T00:23:45;23.10;99.90
3727;DHT22;1879;45.876;12.300;2022-08-21T00:26:12;23.10;99.90
3727;DHT22;1879;45.876;12.300;2022-08-21T00:28:39;23.10;99.90
3727;DHT22;1879;45.876;12.300;2022-08-21T00:31:07;23.00;99.90
3727;DHT22;1879;45.876;12.300;2022-08-21T00:33:34;22.90;99.90
3727;DHT22;1879;45.876;12.300;2022-08-21T00:36:02;23.00;99.90
3727;DHT22;1879;45.876;12.300;2022-08-21T00:38:31;22.90;99.90
3727;DHT22;1879;45.876;12.300;2022-08-21T00:41:00;23.00;99.90
3727;DHT22;1879;45.876;12.300;2022-08-21T00:43:32;23.10;99.90
3727;DHT22;1879;45.876;12.300;2022-08-21T00:46:00;23.10;99.90
3727;DHT22;1879;45.876;12.300;2022-08-21T00:48:27;23.10;99.90
3727;DHT22;1879;45.876;12.300;2022-08-21T00:50:58;23.10;99.90
3727;DHT22;1879;45.876;12.300;2022-08-21T00:53:26;23.00;99.90
3727;DHT22;1879;45.876;12.300;2022-08-21T00:55:58;23.00;99.90
3727;DHT22;1879;45.876;12.300;2022-08-21T00:58:28;23.00;99.90
3727;DHT22;1879;45.876;12.300;2022-08-21T01:00:57;22.90;99.90
3727;DHT22;1879;45.876;12.300;2022-08-21T01:03:26;22.80;99.90
3727;DHT22;1879;45.876;12.300;2022-08-21T01:05:53;22.50;99.90
3727;DHT22;1879;45.876;12.300;2022-08-21T01:08:21;22.40;99.90
3727;DHT22;1879;45.876;12.300;2022-08-21T01:10:49;22.40;99.90
3727;DHT22;1879;45.876;12.300;2022-08-21T01:13:18;22.40;99.90
3727;DHT22;1879;45.876;12.300;2022-08-21T01:15:48;22.50;99.90
3727;DHT22;1879;45.876;12.300;2022-08-21T01:18:16;22.60;99.90
3727;DHT22;1879;45.876;12.300;2022-08-21T01:20:56;22.60;99.90
3727;DHT22;1879;45.876;12.300;2022-08-21T01:23:23;22.70;99.90
3727;DHT22;1879;45.876;12.300;2022-08-21T01:25:51;22.70;99.90
3727;DHT22;1879;45.876;12.300;2022-08-21T01:28:18;22.70;99.90
3727;DHT22;1879;45.876;12.300;2022-08-21T01:30:46;22.70;99.90
3727;DHT22;1879;45.876;12.300;2022-08-21T01:33:13;22.70;99.90
3727;DHT22;1879;45.876;12.300;2022-08-21T01:35:40;22.70;99.90
3727;DHT22;1879;45.876;12.300;2022-08-21T01:38:08;22.70;99.90
3727;DHT22;1879;45.876;12.300;2022-08-21T01:40:36;22.70;99.90
3727;DHT22;1879;45.876;12.300;2022-08-21T01:43:03;22.70;99.90
3727;DHT22;1879;45.876;12.300;2022-08-21T01:45:30;22.70;99.90
3727;DHT22;1879;45.876;12.300;2022-08-21T01:47:58;22.70;99.90
3727;DHT22;1879;45.876;12.300;2022-08-21T01:50:25;22.80;99.90
3727;DHT22;1879;45.876;12.300;2022-08-21T01:52:52;22.90;99.90
3727;DHT22;1879;45.876;12.300;2022-08-21T01:55:23;22.90;99.90
3727;DHT22;1879;45.876;12.300;2022-08-21T01:57:52;22.90;99.90
3727;DHT22;1879;45.876;12.300;2022-08-21T02:00:21;22.80;99.90
3727;DHT22;1879;45.876;12.300;2022-08-21T02:02:52;22.80;99.90
3727;DHT22;1879;45.876;12.300;2022-08-21T02:05:20;22.70;99.90
3727;DHT22;1879;45.876;12.300;2022-08-21T02:07:49;22.60;99.90
3727;DHT22;1879;45.876;12.300;2022-08-21T02:10:22;22.50;99.90
3727;DHT22;1879;45.876;12.300;2022-08-21T02:12:49;22.50;99.90
3727;DHT22;1879;45.876;12.300;2022-08-21T02:15:16;22.40;99.90
3727;DHT22;1879;45.876;12.300;2022-08-21T02:17:46;22.40;99.90
3727;DHT22;1879;45.876;12.300;2022-08-21T02:20:18;22.40;99.90
3727;DHT22;1879;45.876;12.300;2022-08-21T02:22:45;22.40;99.90
3727;DHT22;1879;45.876;12.300;2022-08-21T02:25:12;22.40;99.90
3727;DHT22;1879;45.876;12.300;2022-08-21T02:27:42;22.30;99.90
3727;DHT22;1879;45.876;12.300;2022-08-21T02:30:11;22.20;99.90
3727;DHT22;1879;45.876;12.300;2022-08-21T02:32:39;22.20;99.90
3727;DHT22;1879;45.876;12.300;2022-08-21T02:35:07;22.10;99.90
3727;DHT22;1879;45.876;12.300;2022-08-21T02:37:42;22.10;99.90
3727;DHT22;1879;45.876;12.300;2022-08-21T02:40:11;22.00;99.90
3727;DHT22;1879;45.876;12.300;2022-08-21T02:42:38;22.00;99.90
3727;DHT22;1879;45.876;12.300;2022-08-21T02:45:08;22.00;99.90
3727;DHT22;1879;45.876;12.300;2022-08-21T02:47:35;22.00;99.90
3727;DHT22;1879;45.876;12.300;2022-08-21T02:50:04;21.90;99.90
3727;DHT22;1879;45.876;12.300;2022-08-21T02:52:32;22.00;99.90
3727;DHT22;1879;45.876;12.300;2022-08-21T02:54:59;22.00;99.90
3727;DHT22;1879;45.876;12.300;2022-08-21T02:57:26;22.00;99.90
3727;DHT22;1879;45.876;12.300;2022-08-21T02:59:53;22.00;99.90
3727;DHT22;1879;45.876;12.300;2022-08-21T03:02:21;21.90;99.90
3727;DHT22;1879;45.876;12.300;2022-08-21T03:04:49;21.80;99.90
3727;DHT22;1879;45.876;12.300;2022-08-21T03:07:16;21.70;99.90
3727;DHT22;1879;45.876;12.300;2022-08-21T03:09:43;21.80;99.90
3727;DHT22;1879;45.876;12.300;2022-08-21T03:12:11;21.80;99.90
3727;DHT22;1879;45.876;12.300;2022-08-21T03:14:38;21.70;99.90
3727;DHT22;1879;45.876;12.300;2022-08-21T03:17:05;21.70;99.90
3727;DHT22;1879;45.876;12.300;2022-08-21T03:19:34;21.60;99.90
3727;DHT22;1879;45.876;12.300;2022-08-21T03:22:01;21.60;99.90
3727;DHT22;1879;45.876;12.300;2022-08-21T03:24:28;21.60;99.90
3727;DHT22;1879;45.876;12.300;2022-08-21T03:26:55;21.60;99.90
3727;DHT22;1879;45.876;12.300;2022-08-21T03:29:22;21.60;99.90
3727;DHT22;1879;45.876;12.300;2022-08-21T03:31:49;21.70;99.90
3727;DHT22;1879;45.876;12.300;2022-08-21T03:34:18;21.80;99.90
3727;DHT22;1879;45.876;12.300;2022-08-21T03:36:46;21.70;99.90
3727;DHT22;1879;45.876;12.300;2022-08-21T03:39:14;21.80;99.90
3727;DHT22;1879;45.876;12.300;2022-08-21T03:41:41;21.70;99.90
3727;DHT22;1879;45.876;12.300;2022-08-21T03:44:08;21.60;99.90
3727;DHT22;1879;45.876;12.300;2022-08-21T03:46:35;21.60;99.90
3727;DHT22;1879;45.876;12.300;2022-08-21T03:49:02;21.60;99.90
3727;DHT22;1879;45.876;12.300;2022-08-21T03:51:30;21.50;99.90
3727;DHT22;1879;45.876;12.300;2022-08-21T03:53:59;21.50;99.90
3727;DHT22;1879;45.876;12.300;2022-08-21T03:56:26;21.40;99.90
3727;DHT22;1879;45.876;12.300;2022-08-21T03:58:53;21.40;99.90
3727;DHT22;1879;45.876;12.300;2022-08-21T04:01:21;21.40;99.90
3727;DHT22;1879;45.876;12.300;2022-08-21T04:03:48;21.30;99.90
3727;DHT22;1879;45.876;12.300;2022-08-21T04:06:15;21.40;99.90
3727;DHT22;1879;45.876;12.300;2022-08-21T04:08:45;21.30;99.90
3727;DHT22;1879;45.876;12.300;2022-08-21T04:11:14;21.40;99.90
3727;DHT22;1879;45.876;12.300;2022-08-21T04:13:42;21.30;99.90
3727;DHT22;1879;45.876;12.300;2022-08-21T04:16:09;21.20;99.90
3727;DHT22;1879;45.876;12.300;2022-08-21T04:18:36;21.20;99.90
3727;DHT22;1879;45.876;12.300;2022-08-21T04:21:03;21.30;99.90
3727;DHT22;1879;45.876;12.300;2022-08-21T04:23:31;21.30;99.90
3727;DHT22;1879;45.876;12.300;2022-08-21T04:25:59;21.40;99.90
3727;DHT22;1879;45.876;12.300;2022-08-21T04:28:27;21.50;99.90
3727;DHT22;1879;45.876;12.300;2022-08-21T04:30:55;21.50;99.90
3727;DHT22;1879;45.876;12.300;2022-08-21T04:33:23;21.50;99.90
3727;DHT22;1879;45.876;12.300;2022-08-21T04:35:50;21.50;99.90
3727;DHT22;1879;45.876;12.300;2022-08-21T04:38:17;21.40;99.90
3727;DHT22;1879;45.876;12.300;2022-08-21T04:40:44;21.40;99.90
3727;DHT22;1879;45.876;12.300;2022-08-21T04:43:12;21.40;99.90
3727;DHT22;1879;45.876;12.300;2022-08-21T04:45:43;21.40;99.90
3727;DHT22;1879;45.876;12.300;2022-08-21T04:48:12;21.40;99.90
3727;DHT22;1879;45.876;12.300;2022-08-21T04:50:42;21.50;99.90
3727;DHT22;1879;45.876;12.300;2022-08-21T04:53:13;21.50;99.90
3727;DHT22;1879;45.876;12.300;2022-08-21T04:55:41;21.60;99.90
3727;DHT22;1879;45.876;12.300;2022-08-21T04:58:10;21.70;99.90
3727;DHT22;1879;45.876;12.300;2022-08-21T05:00:40;21.70;99.90
3727;DHT22;1879;45.876;12.300;2022-08-21T05:03:08;21.70;99.90
3727;DHT22;1879;45.876;12.300;2022-08-21T05:05:36;21.80;99.90
3727;DHT22;1879;45.876;12.300;2022-08-21T05:08:04;21.80;99.90
3727;DHT22;1879;45.876;12.300;2022-08-21T05:10:31;21.80;99.90
3727;DHT22;1879;45.876;12.300;2022-08-21T05:12:59;21.90;99.90
3727;DHT22;1879;45.876;12.300;2022-08-21T05:15:26;21.90;99.90
3727;DHT22;1879;45.876;12.300;2022-08-21T05:17:55;21.90;99.90
3727;DHT22;1879;45.876;12.300;2022-08-21T05:20:22;22.00;99.90
3727;DHT22;1879;45.876;12.300;2022-08-21T05:22:49;22.00;99.90
3727;DHT22;1879;45.876;12.300;2022-08-21T05:25:16;22.00;99.90
3727;DHT22;1879;45.876;12.300;2022-08-21T05:27:43;22.10;99.90
3727;DHT22;1879;45.876;12.300;2022-08-21T05:30:11;22.10;99.90
3727;DHT22;1879;45.876;12.300;2022-08-21T05:32:38;22.20;99.90
3727;DHT22;1879;45.876;12.300;2022-08-21T05:35:07;22.30;99.90
3727;DHT22;1879;45.876;12.300;2022-08-21T05:37:34;22.30;99.90
3727;DHT22;1879;45.876;12.300;2022-08-21T05:40:04;22.30;99.90
3727;DHT22;1879;45.876;12.300;2022-08-21T05:42:31;22.40;99.90
3727;DHT22;1879;45.876;12.300;2022-08-21T05:44:58;22.50;99.90
3727;DHT22;1879;45.876;12.300;2022-08-21T05:47:25;22.50;99.90
3727;DHT22;1879;45.876;12.300;2022-08-21T05:49:52;22.60;99.90
3727;DHT22;1879;45.876;12.300;2022-08-21T05:52:21;22.60;99.90
3727;DHT22;1879;45.876;12.300;2022-08-21T05:54:49;22.60;99.90
3727;DHT22;1879;45.876;12.300;2022-08-21T05:57:16;22.70;99.90
3727;DHT22;1879;45.876;12.300;2022-08-21T05:59:43;22.70;99.90
3727;DHT22;1879;45.876;12.300;2022-08-21T06:02:10;22.80;99.90
3727;DHT22;1879;45.876;12.300;2022-08-21T06:04:37;22.80;99.90
3727;DHT22;1879;45.876;12.300;2022-08-21T06:07:06;22.80;99.90
3727;DHT22;1879;45.876;12.300;2022-08-21T06:09:35;22.80;99.90
3727;DHT22;1879;45.876;12.300;2022-08-21T06:12:04;22.80;99.90
3727;DHT22;1879;45.876;12.300;2022-08-21T06:14:31;22.80;99.90
3727;DHT22;1879;45.876;12.300;2022-08-21T06:17:02;22.80;99.90
3727;DHT22;1879;45.876;12.300;2022-08-21T06:19:30;22.80;99.90
3727;DHT22;1879;45.876;12.300;2022-08-21T06:21:57;22.80;99.90
3727;DHT22;1879;45.876;12.300;2022-08-21T06:24:24;22.90;99.90
3727;DHT22;1879;45.876;12.300;2022-08-21T06:26:53;22.80;99.90
3727;DHT22;1879;45.876;12.300;2022-08-21T06:29:20;22.90;99.90
3727;DHT22;1879;45.876;12.300;2022-08-21T06:31:48;22.90;99.90
3727;DHT22;1879;45.876;12.300;2022-08-21T06:34:15;22.90;99.90
3727;DHT22;1879;45.876;12.300;2022-08-21T06:36:42;23.00;99.90
3727;DHT22;1879;45.876;12.300;2022-08-21T06:39:10;23.10;99.90
3727;DHT22;1879;45.876;12.300;2022-08-21T06:41:39;23.20;99.90
3727;DHT22;1879;45.876;12.300;2022-08-21T06:44:07;23.30;99.90
3727;DHT22;1879;45.876;12.300;2022-08-21T06:46:34;23.40;99.90
3727;DHT22;1879;45.876;12.300;2022-08-21T06:49:01;23.40;99.90
3727;DHT22;1879;45.876;12.300;2022-08-21T06:51:29;23.50;99.90
3727;DHT22;1879;45.876;12.300;2022-08-21T06:53:56;23.60;99.90
3727;DHT22;1879;45.876;12.300;2022-08-21T06:56:23;23.60;99.90
3727;DHT22;1879;45.876;12.300;2022-08-21T06:58:50;23.70;99.90
3727;DHT22;1879;45.876;12.300;2022-08-21T07:01:24;23.70;99.90
3727;DHT22;1879;45.876;12.300;2022-08-21T07:03:51;23.80;99.90
3727;DHT22;1879;45.876;12.300;2022-08-21T07:06:18;23.90;99.90
3727;DHT22;1879;45.876;12.300;2022-08-21T07:08:45;23.90;99.90
3727;DHT22;1879;45.876;12.300;2022-08-21T07:11:16;23.90;99.90
3727;DHT22;1879;45.876;12.300;2022-08-21T07:13:44;23.90;99.90
3727;DHT22;1879;45.876;12.300;2022-08-21T07:16:11;23.90;99.90
3727;DHT22;1879;45.876;12.300;2022-08-21T07:18:40;23.90;99.90
3727;DHT22;1879;45.876;12.300;2022-08-21T07:21:08;23.90;99.90
3727;DHT22;1879;45.876;12.300;2022-08-21T07:23:39;24.00;99.90
3727;DHT22;1879;45.876;12.300;2022-08-21T07:26:07;24.00;99.90
3727;DHT22;1879;45.876;12.300;2022-08-21T07:28:35;24.10;99.90
3727;DHT22;1879;45.876;12.300;2022-08-21T07:31:03;24.10;99.90
3727;DHT22;1879;45.876;12.300;2022-08-21T07:33:33;24.20;99.90
3727;DHT22;1879;45.876;12.300;2022-08-21T07:36:02;24.20;99.90
3727;DHT22;1879;45.876;12.300;2022-08-21T07:38:29;24.20;99.90
3727;DHT22;1879;45.876;12.300;2022-08-21T07:40:57;24.30;99.90
3727;DHT22;1879;45.876;12.300;2022-08-21T07:43:25;24.30;99.90
3727;DHT22;1879;45.876;12.300;2022-08-21T07:45:53;24.30;99.90
3727;DHT22;1879;45.876;12.300;2022-08-21T07:48:20;24.30;99.90
3727;DHT22;1879;45.876;12.300;2022-08-21T07:50:48;24.30;99.90
3727;DHT22;1879;45.876;12.300;2022-08-21T07:53:17;24.50;99.90
3727;DHT22;1879;45.876;12.300;2022-08-21T07:55:44;24.60;99.90
3727;DHT22;1879;45.876;12.300;2022-08-21T07:58:11;24.60;99.90
3727;DHT22;1879;45.876;12.300;2022-08-21T08:00:41;24.70;99.90
3727;DHT22;1879;45.876;12.300;2022-08-21T08:03:13;24.80;99.90
3727;DHT22;1879;45.876;12.300;2022-08-21T08:05:40;24.80;99.90
3727;DHT22;1879;45.876;12.300;2022-08-21T08:08:07;24.90;99.90
3727;DHT22;1879;45.876;12.300;2022-08-21T08:10:37;24.90;99.90
3727;DHT22;1879;45.876;12.300;2022-08-21T08:13:14;24.90;99.90
3727;DHT22;1879;45.876;12.300;2022-08-21T08:15:41;24.90;99.90
3727;DHT22;1879;45.876;12.300;2022-08-21T08:18:17;25.00;99.90
3727;DHT22;1879;45.876;12.300;2022-08-21T08:20:47;25.00;99.90
3727;DHT22;1879;45.876;12.300;2022-08-21T08:23:15;25.10;99.90
3727;DHT22;1879;45.876;12.300;2022-08-21T08:25:44;25.20;99.90
3727;DHT22;1879;45.876;12.300;2022-08-21T08:28:11;25.30;99.90
3727;DHT22;1879;45.876;12.300;2022-08-21T08:30:38;25.40;99.90
3727;DHT22;1879;45.876;12.300;2022-08-21T08:33:05;25.40;99.90
3727;DHT22;1879;45.876;12.300;2022-08-21T08:35:32;25.40;99.90
3727;DHT22;1879;45.876;12.300;2022-08-21T08:37:59;25.50;99.90
3727;DHT22;1879;45.876;12.300;2022-08-21T08:40:32;25.60;99.90
3727;DHT22;1879;45.876;12.300;2022-08-21T08:43:03;25.60;99.90
3727;DHT22;1879;45.876;12.300;2022-08-21T08:45:36;25.70;99.90
3727;DHT22;1879;45.876;12.300;2022-08-21T08:48:06;25.70;99.90
3727;DHT22;1879;45.876;12.300;2022-08-21T08:50:40;25.80;99.90
3727;DHT22;1879;45.876;12.300;2022-08-21T08:53:16;25.90;99.90
3727;DHT22;1879;45.876;12.300;2022-08-21T08:55:45;25.90;99.90
3727;DHT22;1879;45.876;12.300;2022-08-21T08:58:17;26.00;99.90
3727;DHT22;1879;45.876;12.300;2022-08-21T09:00:48;26.00;99.90
3727;DHT22;1879;45.876;12.300;2022-08-21T09:03:16;26.10;99.90
3727;DHT22;1879;45.876;12.300;2022-08-21T09:05:46;26.20;99.90
3727;DHT22;1879;45.876;12.300;2022-08-21T09:08:25;26.30;99.90
3727;DHT22;1879;45.876;12.300;2022-08-21T09:11:00;26.30;99.90
3727;DHT22;1879;45.876;12.300;2022-08-21T09:13:38;26.40;99.90
3727;DHT22;1879;45.876;12.300;2022-08-21T09:16:13;26.40;99.90
3727;DHT22;1879;45.876;12.300;2022-08-21T09:18:53;26.50;99.90
3727;DHT22;1879;45.876;12.300;2022-08-21T09:21:31;26.60;99.90
3727;DHT22;1879;45.876;12.300;2022-08-21T09:24:08;26.70;99.90
3727;DHT22;1879;45.876;12.300;2022-08-21T09:26:46;26.60;99.90
3727;DHT22;1879;45.876;12.300;2022-08-21T09:29:17;26.70;99.90
3727;DHT22;1879;45.876;12.300;2022-08-21T09:31:47;26.80;99.90
3727;DHT22;1879;45.876;12.300;2022-08-21T09:34:24;27.00;99.90
3727;DHT22;1879;45.876;12.300;2022-08-21T09:36:51;27.10;99.90
3727;DHT22;1879;45.876;12.300;2022-08-21T09:39:23;27.20;99.90
3727;DHT22;1879;45.876;12.300;2022-08-21T09:41:56;27.30;99.90
3727;DHT22;1879;45.876;12.300;2022-08-21T09:44:27;27.40;99.90
3727;DHT22;1879;45.876;12.300;2022-08-21T09:46:55;27.50;99.90
3727;DHT22;1879;45.876;12.300;2022-08-21T09:49:29;27.60;99.70
3727;DHT22;1879;45.876;12.300;2022-08-21T09:51:57;27.70;99.90
3727;DHT22;1879;45.876;12.300;2022-08-21T09:54:29;27.70;99.90
3727;DHT22;1879;45.876;12.300;2022-08-21T09:56:58;27.80;99.50
3727;DHT22;1879;45.876;12.300;2022-08-21T09:59:45;27.80;99.30
3727;DHT22;1879;45.876;12.300;2022-08-21T10:02:26;27.80;99.00
3727;DHT22;1879;45.876;12.300;2022-08-21T10:04:56;27.80;99.10
3727;DHT22;1879;45.876;12.300;2022-08-21T10:07:25;27.90;99.50
3727;DHT22;1879;45.876;12.300;2022-08-21T10:10:02;28.00;99.20
3727;DHT22;1879;45.876;12.300;2022-08-21T10:12:36;28.10;99.10
3727;DHT22;1879;45.876;12.300;2022-08-21T10:15:18;28.10;98.30
3727;DHT22;1879;45.876;12.300;2022-08-21T10:17:54;28.10;97.90
3727;DHT22;1879;45.876;12.300;2022-08-21T10:20:29;28.20;97.70
3727;DHT22;1879;45.876;12.300;2022-08-21T10:23:05;28.20;97.90
3727;DHT22;1879;45.876;12.300;2022-08-21T10:25:40;28.20;97.90
3727;DHT22;1879;45.876;12.300;2022-08-21T10:28:13;28.30;97.60
3727;DHT22;1879;45.876;12.300;2022-08-21T10:30:48;28.30;97.30
3727;DHT22;1879;45.876;12.300;2022-08-21T10:33:25;28.40;97.00
3727;DHT22;1879;45.876;12.300;2022-08-21T10:36:02;28.50;96.60
3727;DHT22;1879;45.876;12.300;2022-08-21T10:38:56;28.50;96.30
3727;DHT22;1879;45.876;12.300;2022-08-21T10:41:37;28.70;95.60
3727;DHT22;1879;45.876;12.300;2022-08-21T10:44:13;28.80;94.60
3727;DHT22;1879;45.876;12.300;2022-08-21T10:46:50;28.90;95.20
3727;DHT22;1879;45.876;12.300;2022-08-21T10:49:24;29.10;95.00
3727;DHT22;1879;45.876;12.300;2022-08-21T10:52:01;29.20;94.10
3727;DHT22;1879;45.876;12.300;2022-08-21T10:54:37;29.30;93.50
3727;DHT22;1879;45.876;12.300;2022-08-21T10:57:18;29.20;94.50
3727;DHT22;1879;45.876;12.300;2022-08-21T10:59:50;29.20;94.00
3727;DHT22;1879;45.876;12.300;2022-08-21T11:02:23;29.20;94.60
3727;DHT22;1879;45.876;12.300;2022-08-21T11:04:57;29.40;94.60
3727;DHT22;1879;45.876;12.300;2022-08-21T11:07:30;29.50;94.10
3727;DHT22;1879;45.876;12.300;2022-08-21T11:10:03;29.70;94.20
3727;DHT22;1879;45.876;12.300;2022-08-21T11:12:35;29.90;94.90
3727;DHT22;1879;45.876;12.300;2022-08-21T11:15:15;30.00;94.10
3727;DHT22;1879;45.876;12.300;2022-08-21T11:17:54;30.00;94.50
3727;DHT22;1879;45.876;12.300;2022-08-21T11:20:30;30.10;94.00
3727;DHT22;1879;45.876;12.300;2022-08-21T11:23:04;30.30;93.80
3727;DHT22;1879;45.876;12.300;2022-08-21T11:25:35;30.50;93.80
3727;DHT22;1879;45.876;12.300;2022-08-21T11:28:08;30.70;93.40
3727;DHT22;1879;45.876;12.300;2022-08-21T11:30:44;30.80;92.10
3727;DHT22;1879;45.876;12.300;2022-08-21T11:33:26;31.00;91.20
3727;DHT22;1879;45.876;12.300;2022-08-21T11:35:59;31.20;91.10
3727;DHT22;1879;45.876;12.300;2022-08-21T11:38:40;31.40;88.80
3727;DHT22;1879;45.876;12.300;2022-08-21T11:41:24;31.60;89.20
3727;DHT22;1879;45.876;12.300;2022-08-21T11:44:06;31.90;88.30
3727;DHT22;1879;45.876;12.300;2022-08-21T11:46:42;31.70;85.90
3727;DHT22;1879;45.876;12.300;2022-08-21T11:49:38;32.00;85.20
3727;DHT22;1879;45.876;12.300;2022-08-21T11:52:16;32.00;82.10
3727;DHT22;1879;45.876;12.300;2022-08-21T11:54:48;31.70;82.60
3727;DHT22;1879;45.876;12.300;2022-08-21T11:57:19;31.40;81.80
3727;DHT22;1879;45.876;12.300;2022-08-21T11:59:51;31.30;81.30
3727;DHT22;1879;45.876;12.300;2022-08-21T12:02:23;31.50;81.10
3727;DHT22;1879;45.876;12.300;2022-08-21T12:04:55;32.00;79.00
3727;DHT22;1879;45.876;12.300;2022-08-21T12:07:33;32.40;79.60
3727;DHT22;1879;45.876;12.300;2022-08-21T12:10:02;32.80;76.30
3727;DHT22;1879;45.876;12.300;2022-08-21T12:12:32;33.00;77.00
3727;DHT22;1879;45.876;12.300;2022-08-21T12:15:16;33.20;75.80
3727;DHT22;1879;45.876;12.300;2022-08-21T12:17:58;33.00;74.40
3727;DHT22;1879;45.876;12.300;2022-08-21T12:20:39;32.90;73.70
3727;DHT22;1879;45.876;12.300;2022-08-21T12:23:24;32.70;73.20
3727;DHT22;1879;45.876;12.300;2022-08-21T12:29:02;33.20;72.20
3727;DHT22;1879;45.876;12.300;2022-08-21T12:31:29;33.10;73.00
3727;DHT22;1879;45.876;12.300;2022-08-21T12:34:00;32.90;73.80
3727;DHT22;1879;45.876;12.300;2022-08-21T12:36:41;32.80;74.20
3727;DHT22;1879;45.876;12.300;2022-08-21T12:39:13;32.40;74.50
3727;DHT22;1879;45.876;12.300;2022-08-21T12:41:48;32.50;73.20
3727;DHT22;1879;45.876;12.300;2022-08-21T12:44:21;33.20;72.00
3727;DHT22;1879;45.876;12.300;2022-08-21T12:46:51;33.90;71.30
3727;DHT22;1879;45.876;12.300;2022-08-21T12:49:27;34.30;70.10
3727;DHT22;1879;45.876;12.300;2022-08-21T12:52:02;34.80;69.60
3727;DHT22;1879;45.876;12.300;2022-08-21T12:54:37;35.30;67.20
3727;DHT22;1879;45.876;12.300;2022-08-21T12:57:06;35.60;64.80
3727;DHT22;1879;45.876;12.300;2022-08-21T12:59:38;35.70;64.70
3727;DHT22;1879;45.876;12.300;2022-08-21T13:02:15;35.80;62.20
3727;DHT22;1879;45.876;12.300;2022-08-21T13:04:44;35.80;61.20
3727;DHT22;1879;45.876;12.300;2022-08-21T13:07:15;35.80;62.10
3727;DHT22;1879;45.876;12.300;2022-08-21T13:09:47;35.70;61.20
3727;DHT22;1879;45.876;12.300;2022-08-21T13:12:16;35.80;61.50
3727;DHT22;1879;45.876;12.300;2022-08-21T13:14:50;35.90;60.30
3727;DHT22;1879;45.876;12.300;2022-08-21T13:17:20;36.00;58.90
3727;DHT22;1879;45.876;12.300;2022-08-21T13:19:55;35.70;57.40
3727;DHT22;1879;45.876;12.300;2022-08-21T13:22:26;35.70;55.70
3727;DHT22;1879;45.876;12.300;2022-08-21T13:24:56;35.80;57.90
3727;DHT22;1879;45.876;12.300;2022-08-21T13:27:26;36.00;57.40
3727;DHT22;1879;45.876;12.300;2022-08-21T13:30:09;36.10;56.80
3727;DHT22;1879;45.876;12.300;2022-08-21T13:32:40;36.40;56.20
3727;DHT22;1879;45.876;12.300;2022-08-21T13:35:14;36.40;54.80
3727;DHT22;1879;45.876;12.300;2022-08-21T13:37:43;36.40;56.10
3727;DHT22;1879;45.876;12.300;2022-08-21T13:40:14;36.50;56.00
3727;DHT22;1879;45.876;12.300;2022-08-21T13:42:43;36.70;57.30
3727;DHT22;1879;45.876;12.300;2022-08-21T13:45:14;36.80;56.70
3727;DHT22;1879;45.876;12.300;2022-08-21T13:47:42;36.90;58.30
3727;DHT22;1879;45.876;12.300;2022-08-21T13:50:12;36.80;56.30
3727;DHT22;1879;45.876;12.300;2022-08-21T13:52:53;36.80;56.60
3727;DHT22;1879;45.876;12.300;2022-08-21T13:55:21;36.90;54.20
3727;DHT22;1879;45.876;12.300;2022-08-21T13:57:58;37.10;54.50
3727;DHT22;1879;45.876;12.300;2022-08-21T14:00:28;37.20;53.10
3727;DHT22;1879;45.876;12.300;2022-08-21T14:03:02;37.30;53.00
3727;DHT22;1879;45.876;12.300;2022-08-21T14:05:33;37.40;52.80
3727;DHT22;1879;45.876;12.300;2022-08-21T14:08:08;37.50;52.90
3727;DHT22;1879;45.876;12.300;2022-08-21T14:10:41;37.50;52.90
3727;DHT22;1879;45.876;12.300;2022-08-21T14:13:33;37.60;52.70
3727;DHT22;1879;45.876;12.300;2022-08-21T14:16:08;37.60;50.80
3727;DHT22;1879;45.876;12.300;2022-08-21T14:18:44;37.60;51.90
3727;DHT22;1879;45.876;12.300;2022-08-21T14:21:11;37.60;53.40
3727;DHT22;1879;45.876;12.300;2022-08-21T14:23:40;37.70;54.90
3727;DHT22;1879;45.876;12.300;2022-08-21T14:26:08;37.80;56.10
3727;DHT22;1879;45.876;12.300;2022-08-21T14:28:39;37.90;56.60
3727;DHT22;1879;45.876;12.300;2022-08-21T14:31:15;37.90;56.30
3727;DHT22;1879;45.876;12.300;2022-08-21T14:33:43;37.90;55.00
3727;DHT22;1879;45.876;12.300;2022-08-21T14:36:10;37.80;56.00
3727;DHT22;1879;45.876;12.300;2022-08-21T14:38:40;37.80;56.40
3727;DHT22;1879;45.876;12.300;2022-08-21T14:41:13;37.70;55.40
3727;DHT22;1879;45.876;12.300;2022-08-21T14:43:43;37.60;57.40
3727;DHT22;1879;45.876;12.300;2022-08-21T14:46:11;37.30;58.40
3727;DHT22;1879;45.876;12.300;2022-08-21T14:48:39;37.20;59.60
3727;DHT22;1879;45.876;12.300;2022-08-21T14:51:06;36.90;59.30
3727;DHT22;1879;45.876;12.300;2022-08-21T14:53:33;36.40;59.90
3727;DHT22;1879;45.876;12.300;2022-08-21T14:56:02;35.90;61.20
3727;DHT22;1879;45.876;12.300;2022-08-21T14:58:33;35.30;61.90
3727;DHT22;1879;45.876;12.300;2022-08-21T15:01:01;34.50;62.80
3727;DHT22;1879;45.876;12.300;2022-08-21T15:03:29;34.00;63.80
3727;DHT22;1879;45.876;12.300;2022-08-21T15:05:58;33.50;63.50
3727;DHT22;1879;45.876;12.300;2022-08-21T15:08:25;33.60;64.30
3727;DHT22;1879;45.876;12.300;2022-08-21T15:10:52;33.80;64.50
3727;DHT22;1879;45.876;12.300;2022-08-21T15:13:21;34.20;65.10
3727;DHT22;1879;45.876;12.300;2022-08-21T15:15:49;34.60;64.00
3727;DHT22;1879;45.876;12.300;2022-08-21T15:18:18;34.90;63.60
3727;DHT22;1879;45.876;12.300;2022-08-21T15:20:45;35.10;63.30
3727;DHT22;1879;45.876;12.300;2022-08-21T15:23:12;35.30;62.70
3727;DHT22;1879;45.876;12.300;2022-08-21T15:25:40;35.40;62.50
3727;DHT22;1879;45.876;12.300;2022-08-21T15:28:08;35.60;62.30
3727;DHT22;1879;45.876;12.300;2022-08-21T15:30:39;35.40;60.30
3727;DHT22;1879;45.876;12.300;2022-08-21T15:33:07;35.20;58.80
3727;DHT22;1879;45.876;12.300;2022-08-21T15:35:34;35.10;58.00
3727;DHT22;1879;45.876;12.300;2022-08-21T15:38:02;35.30;59.40
3727;DHT22;1879;45.876;12.300;2022-08-21T15:40:29;35.20;59.20
3727;DHT22;1879;45.876;12.300;2022-08-21T15:43:00;35.20;59.60
3727;DHT22;1879;45.876;12.300;2022-08-21T15:45:27;35.10;58.30
3727;DHT22;1879;45.876;12.300;2022-08-21T15:47:56;35.00;57.60
3727;DHT22;1879;45.876;12.300;2022-08-21T15:50:24;34.90;58.60
3727;DHT22;1879;45.876;12.300;2022-08-21T15:52:52;34.90;57.90
3727;DHT22;1879;45.876;12.300;2022-08-21T15:55:19;34.90;57.80
3727;DHT22;1879;45.876;12.300;2022-08-21T15:57:49;35.00;58.20
3727;DHT22;1879;45.876;12.300;2022-08-21T16:00:19;35.00;58.60
3727;DHT22;1879;45.876;12.300;2022-08-21T16:02:53;35.00;57.80
3727;DHT22;1879;45.876;12.300;2022-08-21T16:05:22;34.90;56.40
3727;DHT22;1879;45.876;12.300;2022-08-21T16:07:50;34.90;57.30